Capitan FAP Pedro Canga Rodriguez Airport
SPME : now visible

Aeroporto :











RITROVATECI SU...

 
LOGIN :

Iscrizione | Disclaimer

   EN    FR    IT 

 









Sommario :    VFR   VFR Marginale   IFR   IFR Intensivo   IFR Molto Intensivo
Visibilità : 
Base nubi : 
>= 8 km
>= 3000ft
5 / 8 km
1000 / 3000 ft
1500m / 5 km
500 / 1000 ft
800 / 1500m
200 / 500 ft
< 800m
< 200 ft
Simboli :   Temporali  Nebbia  Neve Forte  Precipitazioni Forti  Vento > 20 kt






- Altitudine del aeroporto : 115 ft
- Codice IATA : TBP


SPME - Capitan FAP Pedro Canga Rodriguez

METARs OBSOLETI :
  • 280300Z VRB02KT 240V310 9999 BKN012 27/23 Q1013 RMK BIRD HAZARD RWY 32/14 PP000

TAF TAF SPME
Valido dal 28 a 00 ore il 29 a 00 ore UTC


272224Z 2800/2824 28005KT 9999 SCT012 SCT017 TX31/2819Z TN23/2811Z
BECMG 2801/2803 VRB01KT BKN012
PROB30
TEMPO 2810/2813 6000 DZ
FM281700 32008KT 9999 FEW013 SCT030



MetMap, La meteo Aeronautica in un colpo d'occhio ! - Copyright ORBIFLY Dicembre 2007 - Disclaimer

ORBIFLY MET'MAP TEAM :

Programmazione e sviluppo : Alexandra Zaïnal
Concezione : Baudouin d'Aumeries
Aiuto per la programmazione : Marc-Olivier Méhu
Supporto tecnico e logistico : Manuel Goepfert
Aiuto per la traduzione : Arnaldo La Scala

Contatto : metmap@orbifly.com




FONTI E CREDITI :

   NOAA       Earth
Advisory